sensor_id;sensor_type;location;lat;lon;timestamp;temperature;humidity
48860;DHT22;34679;51.436;-2.518;2023-04-24T00:00:09;6.60;99.90
48860;DHT22;34679;51.436;-2.518;2023-04-24T00:02:36;6.60;99.90
48860;DHT22;34679;51.436;-2.518;2023-04-24T00:05:06;6.60;99.90
48860;DHT22;34679;51.436;-2.518;2023-04-24T00:07:32;6.60;99.90
48860;DHT22;34679;51.436;-2.518;2023-04-24T00:09:58;6.60;99.90
48860;DHT22;34679;51.436;-2.518;2023-04-24T00:12:24;6.50;99.90
48860;DHT22;34679;51.436;-2.518;2023-04-24T00:14:50;6.50;99.90
48860;DHT22;34679;51.436;-2.518;2023-04-24T00:17:16;6.40;99.90
48860;DHT22;34679;51.436;-2.518;2023-04-24T00:19:45;6.40;99.90
48860;DHT22;34679;51.436;-2.518;2023-04-24T00:22:11;6.40;99.90
48860;DHT22;34679;51.436;-2.518;2023-04-24T00:24:38;6.40;99.90
48860;DHT22;34679;51.436;-2.518;2023-04-24T00:27:04;6.40;99.90
48860;DHT22;34679;51.436;-2.518;2023-04-24T00:29:30;6.50;99.90
48860;DHT22;34679;51.436;-2.518;2023-04-24T00:31:56;6.50;99.90
48860;DHT22;34679;51.436;-2.518;2023-04-24T00:34:21;6.60;99.90
48860;DHT22;34679;51.436;-2.518;2023-04-24T00:36:47;6.60;99.90
48860;DHT22;34679;51.436;-2.518;2023-04-24T00:39:15;6.60;99.90
48860;DHT22;34679;51.436;-2.518;2023-04-24T00:41:41;6.70;99.90
48860;DHT22;34679;51.436;-2.518;2023-04-24T00:44:07;6.70;99.90
48860;DHT22;34679;51.436;-2.518;2023-04-24T00:46:33;6.60;99.90
48860;DHT22;34679;51.436;-2.518;2023-04-24T00:48:59;6.60;99.90
48860;DHT22;34679;51.436;-2.518;2023-04-24T00:51:25;6.60;99.90
48860;DHT22;34679;51.436;-2.518;2023-04-24T00:53:50;6.60;99.90
48860;DHT22;34679;51.436;-2.518;2023-04-24T00:56:17;6.50;99.90
48860;DHT22;34679;51.436;-2.518;2023-04-24T00:58:43;6.50;99.90
48860;DHT22;34679;51.436;-2.518;2023-04-24T01:01:10;6.50;99.90
48860;DHT22;34679;51.436;-2.518;2023-04-24T01:03:37;6.40;99.90
48860;DHT22;34679;51.436;-2.518;2023-04-24T01:06:04;6.40;99.90
48860;DHT22;34679;51.436;-2.518;2023-04-24T01:08:30;6.40;99.90
48860;DHT22;34679;51.436;-2.518;2023-04-24T01:10:57;6.30;99.90
48860;DHT22;34679;51.436;-2.518;2023-04-24T01:13:23;6.30;99.90
48860;DHT22;34679;51.436;-2.518;2023-04-24T01:15:49;6.30;99.90
48860;DHT22;34679;51.436;-2.518;2023-04-24T01:18:15;6.30;99.90
48860;DHT22;34679;51.436;-2.518;2023-04-24T01:20:42;6.30;99.90
48860;DHT22;34679;51.436;-2.518;2023-04-24T01:23:10;6.30;99.90
48860;DHT22;34679;51.436;-2.518;2023-04-24T01:25:37;6.30;99.90
48860;DHT22;34679;51.436;-2.518;2023-04-24T01:28:03;6.30;99.90
48860;DHT22;34679;51.436;-2.518;2023-04-24T01:30:29;6.30;99.90
48860;DHT22;34679;51.436;-2.518;2023-04-24T01:32:55;6.20;99.90
48860;DHT22;34679;51.436;-2.518;2023-04-24T01:35:21;6.20;99.90
48860;DHT22;34679;51.436;-2.518;2023-04-24T01:37:47;6.10;99.90
48860;DHT22;34679;51.436;-2.518;2023-04-24T01:40:12;6.00;99.90
48860;DHT22;34679;51.436;-2.518;2023-04-24T01:42:38;5.90;99.90
48860;DHT22;34679;51.436;-2.518;2023-04-24T01:45:06;5.90;99.90
48860;DHT22;34679;51.436;-2.518;2023-04-24T01:47:33;5.90;99.90
48860;DHT22;34679;51.436;-2.518;2023-04-24T01:49:59;6.00;99.90
48860;DHT22;34679;51.436;-2.518;2023-04-24T01:52:25;6.00;99.90
48860;DHT22;34679;51.436;-2.518;2023-04-24T01:54:52;5.90;99.90
48860;DHT22;34679;51.436;-2.518;2023-04-24T01:57:18;5.80;99.90
48860;DHT22;34679;51.436;-2.518;2023-04-24T01:59:44;5.70;99.90
48860;DHT22;34679;51.436;-2.518;2023-04-24T02:02:09;5.70;99.90
48860;DHT22;34679;51.436;-2.518;2023-04-24T02:04:35;5.60;99.90
48860;DHT22;34679;51.436;-2.518;2023-04-24T02:07:00;5.60;99.90
48860;DHT22;34679;51.436;-2.518;2023-04-24T02:09:26;5.50;99.90
48860;DHT22;34679;51.436;-2.518;2023-04-24T02:11:52;5.60;99.90
48860;DHT22;34679;51.436;-2.518;2023-04-24T02:14:17;5.70;99.90
48860;DHT22;34679;51.436;-2.518;2023-04-24T02:16:43;5.80;99.90
48860;DHT22;34679;51.436;-2.518;2023-04-24T02:19:09;5.80;99.90
48860;DHT22;34679;51.436;-2.518;2023-04-24T02:21:35;5.90;99.90
48860;DHT22;34679;51.436;-2.518;2023-04-24T02:24:01;6.00;99.90
48860;DHT22;34679;51.436;-2.518;2023-04-24T02:26:26;6.10;99.90
48860;DHT22;34679;51.436;-2.518;2023-04-24T02:28:52;6.10;99.90
48860;DHT22;34679;51.436;-2.518;2023-04-24T02:31:18;6.20;99.90
48860;DHT22;34679;51.436;-2.518;2023-04-24T02:33:43;6.20;99.90
48860;DHT22;34679;51.436;-2.518;2023-04-24T02:36:09;6.10;99.90
48860;DHT22;34679;51.436;-2.518;2023-04-24T02:38:35;6.10;99.90
48860;DHT22;34679;51.436;-2.518;2023-04-24T02:41:00;6.00;99.90
48860;DHT22;34679;51.436;-2.518;2023-04-24T02:43:27;6.10;99.90
48860;DHT22;34679;51.436;-2.518;2023-04-24T02:45:53;6.10;99.90
48860;DHT22;34679;51.436;-2.518;2023-04-24T02:48:19;6.10;99.90
48860;DHT22;34679;51.436;-2.518;2023-04-24T02:50:46;6.10;99.90
48860;DHT22;34679;51.436;-2.518;2023-04-24T02:53:12;6.10;99.90
48860;DHT22;34679;51.436;-2.518;2023-04-24T02:55:37;6.10;99.90
48860;DHT22;34679;51.436;-2.518;2023-04-24T02:58:03;6.00;99.90
48860;DHT22;34679;51.436;-2.518;2023-04-24T03:00:29;5.90;99.90
48860;DHT22;34679;51.436;-2.518;2023-04-24T03:02:55;6.00;99.90
48860;DHT22;34679;51.436;-2.518;2023-04-24T03:05:21;6.00;99.90
48860;DHT22;34679;51.436;-2.518;2023-04-24T03:07:46;6.00;99.90
48860;DHT22;34679;51.436;-2.518;2023-04-24T03:10:12;6.10;99.90
48860;DHT22;34679;51.436;-2.518;2023-04-24T03:12:38;6.10;99.90
48860;DHT22;34679;51.436;-2.518;2023-04-24T03:15:04;6.10;99.90
48860;DHT22;34679;51.436;-2.518;2023-04-24T03:17:30;6.20;99.90
48860;DHT22;34679;51.436;-2.518;2023-04-24T03:19:55;6.20;99.90
48860;DHT22;34679;51.436;-2.518;2023-04-24T03:22:21;6.30;99.90
48860;DHT22;34679;51.436;-2.518;2023-04-24T03:24:48;6.30;99.90
48860;DHT22;34679;51.436;-2.518;2023-04-24T03:27:14;6.30;99.90
48860;DHT22;34679;51.436;-2.518;2023-04-24T03:29:39;6.40;99.90
48860;DHT22;34679;51.436;-2.518;2023-04-24T03:32:05;6.40;99.90
48860;DHT22;34679;51.436;-2.518;2023-04-24T03:34:31;6.40;99.90
48860;DHT22;34679;51.436;-2.518;2023-04-24T03:36:56;6.40;99.90
48860;DHT22;34679;51.436;-2.518;2023-04-24T03:39:22;6.50;99.90
48860;DHT22;34679;51.436;-2.518;2023-04-24T03:41:47;6.40;99.90
48860;DHT22;34679;51.436;-2.518;2023-04-24T03:44:13;6.40;99.90
48860;DHT22;34679;51.436;-2.518;2023-04-24T03:46:39;6.40;99.90
48860;DHT22;34679;51.436;-2.518;2023-04-24T03:49:04;6.40;99.90
48860;DHT22;34679;51.436;-2.518;2023-04-24T03:51:30;6.40;99.90
48860;DHT22;34679;51.436;-2.518;2023-04-24T03:53:56;6.40;99.90
48860;DHT22;34679;51.436;-2.518;2023-04-24T03:56:22;6.30;99.90
48860;DHT22;34679;51.436;-2.518;2023-04-24T03:58:48;6.20;99.90
48860;DHT22;34679;51.436;-2.518;2023-04-24T04:01:13;6.20;99.90
48860;DHT22;34679;51.436;-2.518;2023-04-24T04:03:41;6.10;99.90
48860;DHT22;34679;51.436;-2.518;2023-04-24T04:06:07;6.10;99.90
48860;DHT22;34679;51.436;-2.518;2023-04-24T04:08:32;6.00;99.90
48860;DHT22;34679;51.436;-2.518;2023-04-24T04:10:58;5.90;99.90
48860;DHT22;34679;51.436;-2.518;2023-04-24T04:13:24;5.80;99.90
48860;DHT22;34679;51.436;-2.518;2023-04-24T04:15:50;5.80;99.90
48860;DHT22;34679;51.436;-2.518;2023-04-24T04:18:15;5.80;99.90
48860;DHT22;34679;51.436;-2.518;2023-04-24T04:20:41;5.70;99.90
48860;DHT22;34679;51.436;-2.518;2023-04-24T04:23:07;5.70;99.90
48860;DHT22;34679;51.436;-2.518;2023-04-24T04:25:32;5.60;99.90
48860;DHT22;34679;51.436;-2.518;2023-04-24T04:27:58;5.50;99.90
48860;DHT22;34679;51.436;-2.518;2023-04-24T04:30:25;5.50;99.90
48860;DHT22;34679;51.436;-2.518;2023-04-24T04:32:51;5.40;99.90
48860;DHT22;34679;51.436;-2.518;2023-04-24T04:35:17;5.30;99.90
48860;DHT22;34679;51.436;-2.518;2023-04-24T04:37:42;5.20;99.90
48860;DHT22;34679;51.436;-2.518;2023-04-24T04:40:08;5.20;99.90
48860;DHT22;34679;51.436;-2.518;2023-04-24T04:42:37;5.10;99.90
48860;DHT22;34679;51.436;-2.518;2023-04-24T04:45:08;5.00;99.90
48860;DHT22;34679;51.436;-2.518;2023-04-24T04:47:37;4.90;99.90
48860;DHT22;34679;51.436;-2.518;2023-04-24T04:50:03;4.90;99.90
48860;DHT22;34679;51.436;-2.518;2023-04-24T04:52:31;4.90;99.90
48860;DHT22;34679;51.436;-2.518;2023-04-24T04:54:56;4.90;99.90
48860;DHT22;34679;51.436;-2.518;2023-04-24T04:57:22;4.90;99.90
48860;DHT22;34679;51.436;-2.518;2023-04-24T04:59:48;5.00;99.90
48860;DHT22;34679;51.436;-2.518;2023-04-24T05:02:13;5.00;99.90
48860;DHT22;34679;51.436;-2.518;2023-04-24T05:04:39;5.00;99.90
48860;DHT22;34679;51.436;-2.518;2023-04-24T05:07:05;5.00;99.90
48860;DHT22;34679;51.436;-2.518;2023-04-24T05:09:31;4.90;99.90
48860;DHT22;34679;51.436;-2.518;2023-04-24T05:11:57;4.80;99.90
48860;DHT22;34679;51.436;-2.518;2023-04-24T05:14:23;4.80;99.90
48860;DHT22;34679;51.436;-2.518;2023-04-24T05:16:48;4.80;99.90
48860;DHT22;34679;51.436;-2.518;2023-04-24T05:19:14;4.90;99.90
48860;DHT22;34679;51.436;-2.518;2023-04-24T05:21:43;4.90;99.90
48860;DHT22;34679;51.436;-2.518;2023-04-24T05:24:09;4.90;99.90
48860;DHT22;34679;51.436;-2.518;2023-04-24T05:26:34;5.00;99.90
48860;DHT22;34679;51.436;-2.518;2023-04-24T05:29:01;5.00;99.90
48860;DHT22;34679;51.436;-2.518;2023-04-24T05:31:27;5.20;99.90
48860;DHT22;34679;51.436;-2.518;2023-04-24T05:33:53;5.40;99.90
48860;DHT22;34679;51.436;-2.518;2023-04-24T05:36:19;5.60;99.90
48860;DHT22;34679;51.436;-2.518;2023-04-24T05:38:45;5.70;99.90
48860;DHT22;34679;51.436;-2.518;2023-04-24T05:41:10;5.80;99.90
48860;DHT22;34679;51.436;-2.518;2023-04-24T05:43:36;6.60;99.90
48860;DHT22;34679;51.436;-2.518;2023-04-24T05:46:02;7.50;99.90
48860;DHT22;34679;51.436;-2.518;2023-04-24T05:48:27;8.30;99.90
48860;DHT22;34679;51.436;-2.518;2023-04-24T05:50:53;8.70;99.90
48860;DHT22;34679;51.436;-2.518;2023-04-24T05:53:19;8.80;99.90
48860;DHT22;34679;51.436;-2.518;2023-04-24T05:55:45;9.20;99.90
48860;DHT22;34679;51.436;-2.518;2023-04-24T05:58:11;10.00;99.90
48860;DHT22;34679;51.436;-2.518;2023-04-24T06:00:37;10.90;99.90
48860;DHT22;34679;51.436;-2.518;2023-04-24T06:03:05;11.70;99.90
48860;DHT22;34679;51.436;-2.518;2023-04-24T06:05:31;12.40;99.90
48860;DHT22;34679;51.436;-2.518;2023-04-24T06:07:57;13.00;99.90
48860;DHT22;34679;51.436;-2.518;2023-04-24T06:10:22;13.50;99.90
48860;DHT22;34679;51.436;-2.518;2023-04-24T06:12:48;14.30;99.90
48860;DHT22;34679;51.436;-2.518;2023-04-24T06:15:14;14.80;99.90
48860;DHT22;34679;51.436;-2.518;2023-04-24T06:17:39;15.80;99.90
48860;DHT22;34679;51.436;-2.518;2023-04-24T06:20:06;16.20;99.90
48860;DHT22;34679;51.436;-2.518;2023-04-24T06:22:34;16.50;99.90
48860;DHT22;34679;51.436;-2.518;2023-04-24T06:25:00;16.70;99.90
48860;DHT22;34679;51.436;-2.518;2023-04-24T06:27:26;16.90;99.90
48860;DHT22;34679;51.436;-2.518;2023-04-24T06:29:52;17.30;99.90
48860;DHT22;34679;51.436;-2.518;2023-04-24T06:32:23;18.10;99.90
48860;DHT22;34679;51.436;-2.518;2023-04-24T06:34:51;17.70;99.90
48860;DHT22;34679;51.436;-2.518;2023-04-24T06:37:17;17.70;99.90
48860;DHT22;34679;51.436;-2.518;2023-04-24T06:39:43;17.20;99.90
48860;DHT22;34679;51.436;-2.518;2023-04-24T06:42:09;16.80;99.90
48860;DHT22;34679;51.436;-2.518;2023-04-24T06:44:35;16.60;99.90
48860;DHT22;34679;51.436;-2.518;2023-04-24T06:47:09;16.10;99.90
48860;DHT22;34679;51.436;-2.518;2023-04-24T06:49:38;15.50;99.90
48860;DHT22;34679;51.436;-2.518;2023-04-24T06:52:04;14.80;99.90
48860;DHT22;34679;51.436;-2.518;2023-04-24T06:54:31;14.50;99.90
48860;DHT22;34679;51.436;-2.518;2023-04-24T06:56:57;13.70;99.90
48860;DHT22;34679;51.436;-2.518;2023-04-24T06:59:26;13.30;99.90
48860;DHT22;34679;51.436;-2.518;2023-04-24T07:01:52;13.00;99.90
48860;DHT22;34679;51.436;-2.518;2023-04-24T07:04:18;12.40;99.90
48860;DHT22;34679;51.436;-2.518;2023-04-24T07:06:47;12.20;99.90
48860;DHT22;34679;51.436;-2.518;2023-04-24T07:09:14;12.00;99.90
48860;DHT22;34679;51.436;-2.518;2023-04-24T07:11:41;11.90;99.90
48860;DHT22;34679;51.436;-2.518;2023-04-24T07:14:07;11.70;99.90
48860;DHT22;34679;51.436;-2.518;2023-04-24T07:16:33;11.50;99.90
48860;DHT22;34679;51.436;-2.518;2023-04-24T07:18:59;11.50;99.90
48860;DHT22;34679;51.436;-2.518;2023-04-24T07:21:25;11.20;99.90
48860;DHT22;34679;51.436;-2.518;2023-04-24T07:23:51;11.00;99.90
48860;DHT22;34679;51.436;-2.518;2023-04-24T07:26:17;11.00;99.90
48860;DHT22;34679;51.436;-2.518;2023-04-24T07:28:43;11.00;99.90
48860;DHT22;34679;51.436;-2.518;2023-04-24T07:31:08;11.10;99.90
48860;DHT22;34679;51.436;-2.518;2023-04-24T07:33:34;11.20;99.90
48860;DHT22;34679;51.436;-2.518;2023-04-24T07:36:01;11.20;99.90
48860;DHT22;34679;51.436;-2.518;2023-04-24T07:38:29;11.10;99.90
48860;DHT22;34679;51.436;-2.518;2023-04-24T07:40:55;11.10;99.90
48860;DHT22;34679;51.436;-2.518;2023-04-24T07:43:21;10.90;99.90
48860;DHT22;34679;51.436;-2.518;2023-04-24T07:45:49;10.70;99.90
48860;DHT22;34679;51.436;-2.518;2023-04-24T07:48:15;10.60;99.90
48860;DHT22;34679;51.436;-2.518;2023-04-24T07:50:43;10.60;99.90
48860;DHT22;34679;51.436;-2.518;2023-04-24T07:53:09;10.60;99.90
48860;DHT22;34679;51.436;-2.518;2023-04-24T07:55:35;10.70;99.90
48860;DHT22;34679;51.436;-2.518;2023-04-24T07:58:01;10.80;99.90
48860;DHT22;34679;51.436;-2.518;2023-04-24T08:00:26;11.40;99.90
48860;DHT22;34679;51.436;-2.518;2023-04-24T08:02:52;12.30;99.90
48860;DHT22;34679;51.436;-2.518;2023-04-24T08:05:18;13.70;99.90
48860;DHT22;34679;51.436;-2.518;2023-04-24T08:07:44;14.30;99.90
48860;DHT22;34679;51.436;-2.518;2023-04-24T08:10:11;14.30;99.90
48860;DHT22;34679;51.436;-2.518;2023-04-24T08:12:37;14.40;99.90
48860;DHT22;34679;51.436;-2.518;2023-04-24T08:15:04;14.30;99.90
48860;DHT22;34679;51.436;-2.518;2023-04-24T08:17:30;14.20;99.90
48860;DHT22;34679;51.436;-2.518;2023-04-24T08:19:56;14.80;99.90
48860;DHT22;34679;51.436;-2.518;2023-04-24T08:22:27;15.80;99.90
48860;DHT22;34679;51.436;-2.518;2023-04-24T08:24:54;16.10;99.90
48860;DHT22;34679;51.436;-2.518;2023-04-24T08:27:20;17.10;99.90
48860;DHT22;34679;51.436;-2.518;2023-04-24T08:29:45;17.90;99.90
48860;DHT22;34679;51.436;-2.518;2023-04-24T08:32:11;17.90;99.90
48860;DHT22;34679;51.436;-2.518;2023-04-24T08:34:37;17.00;99.90
48860;DHT22;34679;51.436;-2.518;2023-04-24T08:37:03;16.20;99.90
48860;DHT22;34679;51.436;-2.518;2023-04-24T08:39:29;15.30;99.90
48860;DHT22;34679;51.436;-2.518;2023-04-24T08:41:55;14.40;99.90
48860;DHT22;34679;51.436;-2.518;2023-04-24T08:44:21;13.70;99.90
48860;DHT22;34679;51.436;-2.518;2023-04-24T08:46:50;13.10;99.90
48860;DHT22;34679;51.436;-2.518;2023-04-24T08:49:17;12.70;99.90
48860;DHT22;34679;51.436;-2.518;2023-04-24T08:51:44;12.20;99.90
48860;DHT22;34679;51.436;-2.518;2023-04-24T08:54:11;11.90;99.90
48860;DHT22;34679;51.436;-2.518;2023-04-24T08:56:38;11.70;99.90
48860;DHT22;34679;51.436;-2.518;2023-04-24T08:59:06;11.50;99.90
48860;DHT22;34679;51.436;-2.518;2023-04-24T09:01:33;11.50;99.90
48860;DHT22;34679;51.436;-2.518;2023-04-24T09:04:04;11.50;99.90
48860;DHT22;34679;51.436;-2.518;2023-04-24T09:06:31;11.40;99.90
48860;DHT22;34679;51.436;-2.518;2023-04-24T09:09:02;11.40;99.90
48860;DHT22;34679;51.436;-2.518;2023-04-24T09:11:30;11.40;99.90
48860;DHT22;34679;51.436;-2.518;2023-04-24T09:13:57;11.40;99.90
48860;DHT22;34679;51.436;-2.518;2023-04-24T09:16:25;11.40;99.90
48860;DHT22;34679;51.436;-2.518;2023-04-24T09:18:51;11.20;99.90
48860;DHT22;34679;51.436;-2.518;2023-04-24T09:21:17;11.10;99.90
48860;DHT22;34679;51.436;-2.518;2023-04-24T09:23:45;11.00;99.90
48860;DHT22;34679;51.436;-2.518;2023-04-24T09:26:11;11.00;99.90
48860;DHT22;34679;51.436;-2.518;2023-04-24T09:28:39;11.00;99.90
48860;DHT22;34679;51.436;-2.518;2023-04-24T09:33:32;10.70;99.90
48860;DHT22;34679;51.436;-2.518;2023-04-24T09:35:58;10.70;99.90
48860;DHT22;34679;51.436;-2.518;2023-04-24T09:38:37;10.60;99.90
48860;DHT22;34679;51.436;-2.518;2023-04-24T09:41:06;10.50;99.90
48860;DHT22;34679;51.436;-2.518;2023-04-24T09:43:33;10.40;99.90
48860;DHT22;34679;51.436;-2.518;2023-04-24T09:46:05;10.40;99.90
48860;DHT22;34679;51.436;-2.518;2023-04-24T09:48:36;10.30;99.90
48860;DHT22;34679;51.436;-2.518;2023-04-24T09:51:04;10.20;99.90
48860;DHT22;34679;51.436;-2.518;2023-04-24T09:53:32;10.20;99.90
48860;DHT22;34679;51.436;-2.518;2023-04-24T09:56:16;10.20;99.90
48860;DHT22;34679;51.436;-2.518;2023-04-24T09:58:41;10.00;99.90
48860;DHT22;34679;51.436;-2.518;2023-04-24T10:01:07;9.80;99.90
48860;DHT22;34679;51.436;-2.518;2023-04-24T10:03:34;9.60;99.90
48860;DHT22;34679;51.436;-2.518;2023-04-24T10:06:01;9.40;99.90
48860;DHT22;34679;51.436;-2.518;2023-04-24T10:08:33;9.30;99.90
48860;DHT22;34679;51.436;-2.518;2023-04-24T10:11:00;9.20;99.90
48860;DHT22;34679;51.436;-2.518;2023-04-24T10:13:26;9.20;99.90
48860;DHT22;34679;51.436;-2.518;2023-04-24T10:15:51;9.10;99.90
48860;DHT22;34679;51.436;-2.518;2023-04-24T10:18:17;9.10;99.90
48860;DHT22;34679;51.436;-2.518;2023-04-24T10:20:44;9.10;99.90
48860;DHT22;34679;51.436;-2.518;2023-04-24T10:23:10;9.20;99.90
48860;DHT22;34679;51.436;-2.518;2023-04-24T10:25:37;9.10;99.90
48860;DHT22;34679;51.436;-2.518;2023-04-24T10:28:04;9.00;99.90
48860;DHT22;34679;51.436;-2.518;2023-04-24T10:30:32;9.10;99.90
48860;DHT22;34679;51.436;-2.518;2023-04-24T10:33:03;9.20;99.90
48860;DHT22;34679;51.436;-2.518;2023-04-24T10:35:31;9.30;99.90
48860;DHT22;34679;51.436;-2.518;2023-04-24T10:38:03;9.40;99.90
48860;DHT22;34679;51.436;-2.518;2023-04-24T10:40:35;9.50;99.90
48860;DHT22;34679;51.436;-2.518;2023-04-24T10:43:05;9.40;99.90
48860;DHT22;34679;51.436;-2.518;2023-04-24T10:45:33;9.50;99.90
48860;DHT22;34679;51.436;-2.518;2023-04-24T10:48:01;9.60;99.90
48860;DHT22;34679;51.436;-2.518;2023-04-24T10:50:29;9.60;99.90
48860;DHT22;34679;51.436;-2.518;2023-04-24T10:53:06;9.60;99.90
48860;DHT22;34679;51.436;-2.518;2023-04-24T10:55:44;9.40;99.90
48860;DHT22;34679;51.436;-2.518;2023-04-24T10:58:10;9.20;99.90
48860;DHT22;34679;51.436;-2.518;2023-04-24T11:00:38;9.00;99.90
48860;DHT22;34679;51.436;-2.518;2023-04-24T11:03:26;8.90;99.90
48860;DHT22;34679;51.436;-2.518;2023-04-24T11:08:32;8.70;99.90
48860;DHT22;34679;51.436;-2.518;2023-04-24T11:11:03;8.70;99.90
48860;DHT22;34679;51.436;-2.518;2023-04-24T11:16:32;8.70;99.90
48860;DHT22;34679;51.436;-2.518;2023-04-24T11:19:07;8.60;99.90
48860;DHT22;34679;51.436;-2.518;2023-04-24T11:39:59;9.30;99.90
48860;DHT22;34679;51.436;-2.518;2023-04-24T11:42:25;9.40;99.90
48860;DHT22;34679;51.436;-2.518;2023-04-24T11:44:55;9.50;99.90
48860;DHT22;34679;51.436;-2.518;2023-04-24T11:47:29;9.50;99.90
48860;DHT22;34679;51.436;-2.518;2023-04-24T11:49:55;9.60;99.90
48860;DHT22;34679;51.436;-2.518;2023-04-24T11:52:21;9.50;99.90
48860;DHT22;34679;51.436;-2.518;2023-04-24T11:54:50;9.70;99.90
48860;DHT22;34679;51.436;-2.518;2023-04-24T11:57:20;9.90;99.90
48860;DHT22;34679;51.436;-2.518;2023-04-24T11:59:47;10.20;99.90
48860;DHT22;34679;51.436;-2.518;2023-04-24T12:02:27;10.50;99.90
48860;DHT22;34679;51.436;-2.518;2023-04-24T12:04:53;10.70;99.90
48860;DHT22;34679;51.436;-2.518;2023-04-24T12:07:19;10.70;99.90
48860;DHT22;34679;51.436;-2.518;2023-04-24T12:09:47;10.60;99.90
48860;DHT22;34679;51.436;-2.518;2023-04-24T12:12:15;10.20;99.90
48860;DHT22;34679;51.436;-2.518;2023-04-24T12:14:53;10.30;99.90
48860;DHT22;34679;51.436;-2.518;2023-04-24T12:17:29;10.10;99.90
48860;DHT22;34679;51.436;-2.518;2023-04-24T12:20:01;9.90;99.90
48860;DHT22;34679;51.436;-2.518;2023-04-24T12:22:28;9.70;99.90
48860;DHT22;34679;51.436;-2.518;2023-04-24T12:25:04;9.80;99.90
48860;DHT22;34679;51.436;-2.518;2023-04-24T12:27:32;9.60;99.90
48860;DHT22;34679;51.436;-2.518;2023-04-24T12:30:00;9.70;99.90
48860;DHT22;34679;51.436;-2.518;2023-04-24T12:32:26;9.60;99.90
48860;DHT22;34679;51.436;-2.518;2023-04-24T12:34:53;9.80;99.90
48860;DHT22;34679;51.436;-2.518;2023-04-24T12:37:19;9.60;99.90
48860;DHT22;34679;51.436;-2.518;2023-04-24T12:40:06;9.60;99.90
48860;DHT22;34679;51.436;-2.518;2023-04-24T12:42:32;9.90;99.90
48860;DHT22;34679;51.436;-2.518;2023-04-24T12:45:06;9.90;99.90
48860;DHT22;34679;51.436;-2.518;2023-04-24T12:47:33;10.00;99.90
48860;DHT22;34679;51.436;-2.518;2023-04-24T12:50:00;9.90;99.90
48860;DHT22;34679;51.436;-2.518;2023-04-24T12:52:27;10.00;99.90
48860;DHT22;34679;51.436;-2.518;2023-04-24T12:54:54;10.10;99.90
48860;DHT22;34679;51.436;-2.518;2023-04-24T12:57:21;10.20;99.90
48860;DHT22;34679;51.436;-2.518;2023-04-24T12:59:46;10.60;99.90
48860;DHT22;34679;51.436;-2.518;2023-04-24T13:02:15;10.70;99.90
48860;DHT22;34679;51.436;-2.518;2023-04-24T13:04:47;10.80;99.90
48860;DHT22;34679;51.436;-2.518;2023-04-24T13:07:13;11.20;99.90
48860;DHT22;34679;51.436;-2.518;2023-04-24T13:09:40;11.20;99.90
48860;DHT22;34679;51.436;-2.518;2023-04-24T13:12:07;10.70;99.90
48860;DHT22;34679;51.436;-2.518;2023-04-24T13:14:33;10.80;99.90
48860;DHT22;34679;51.436;-2.518;2023-04-24T13:16:59;10.80;99.90
48860;DHT22;34679;51.436;-2.518;2023-04-24T13:19:26;10.90;99.90
48860;DHT22;34679;51.436;-2.518;2023-04-24T13:21:56;11.00;99.90
48860;DHT22;34679;51.436;-2.518;2023-04-24T13:24:25;11.30;99.90
48860;DHT22;34679;51.436;-2.518;2023-04-24T13:26:52;11.50;99.90
48860;DHT22;34679;51.436;-2.518;2023-04-24T13:29:18;11.40;99.90
48860;DHT22;34679;51.436;-2.518;2023-04-24T13:31:44;11.20;99.90
48860;DHT22;34679;51.436;-2.518;2023-04-24T13:34:10;11.10;99.90
48860;DHT22;34679;51.436;-2.518;2023-04-24T13:36:36;11.30;99.90
48860;DHT22;34679;51.436;-2.518;2023-04-24T13:39:02;11.50;99.90
48860;DHT22;34679;51.436;-2.518;2023-04-24T13:41:30;11.40;99.90
48860;DHT22;34679;51.436;-2.518;2023-04-24T13:43:56;11.50;99.90
48860;DHT22;34679;51.436;-2.518;2023-04-24T13:46:22;11.80;99.90
48860;DHT22;34679;51.436;-2.518;2023-04-24T13:48:47;11.60;99.90
48860;DHT22;34679;51.436;-2.518;2023-04-24T13:51:13;11.80;99.90
48860;DHT22;34679;51.436;-2.518;2023-04-24T13:53:38;11.90;99.90
48860;DHT22;34679;51.436;-2.518;2023-04-24T13:56:05;11.80;99.90
48860;DHT22;34679;51.436;-2.518;2023-04-24T13:58:31;12.10;99.90
48860;DHT22;34679;51.436;-2.518;2023-04-24T14:00:58;12.40;99.90
48860;DHT22;34679;51.436;-2.518;2023-04-24T14:03:23;12.20;99.90
48860;DHT22;34679;51.436;-2.518;2023-04-24T14:05:49;11.90;99.90
48860;DHT22;34679;51.436;-2.518;2023-04-24T14:08:15;11.80;99.90
48860;DHT22;34679;51.436;-2.518;2023-04-24T14:10:42;11.70;99.90
48860;DHT22;34679;51.436;-2.518;2023-04-24T14:13:08;11.50;99.90
48860;DHT22;34679;51.436;-2.518;2023-04-24T14:15:35;11.40;99.90
48860;DHT22;34679;51.436;-2.518;2023-04-24T14:18:01;11.10;99.90
48860;DHT22;34679;51.436;-2.518;2023-04-24T14:20:27;11.00;99.90
48860;DHT22;34679;51.436;-2.518;2023-04-24T14:22:52;10.90;99.90
48860;DHT22;34679;51.436;-2.518;2023-04-24T14:25:18;10.80;99.90
48860;DHT22;34679;51.436;-2.518;2023-04-24T14:27:44;10.70;99.90
48860;DHT22;34679;51.436;-2.518;2023-04-24T14:30:11;10.40;99.90
48860;DHT22;34679;51.436;-2.518;2023-04-24T14:32:38;10.00;99.90
48860;DHT22;34679;51.436;-2.518;2023-04-24T14:35:05;9.70;99.90
48860;DHT22;34679;51.436;-2.518;2023-04-24T14:37:31;9.40;99.90
48860;DHT22;34679;51.436;-2.518;2023-04-24T14:39:57;9.10;99.90
48860;DHT22;34679;51.436;-2.518;2023-04-24T14:42:23;8.90;99.90
48860;DHT22;34679;51.436;-2.518;2023-04-24T14:44:48;8.80;99.90
48860;DHT22;34679;51.436;-2.518;2023-04-24T14:47:14;8.80;99.90
48860;DHT22;34679;51.436;-2.518;2023-04-24T14:49:40;8.80;99.90
48860;DHT22;34679;51.436;-2.518;2023-04-24T14:52:06;8.80;99.90
48860;DHT22;34679;51.436;-2.518;2023-04-24T14:54:31;8.70;99.90
48860;DHT22;34679;51.436;-2.518;2023-04-24T14:56:57;8.60;99.90
48860;DHT22;34679;51.436;-2.518;2023-04-24T14:59:23;8.50;99.90
48860;DHT22;34679;51.436;-2.518;2023-04-24T15:01:48;8.40;99.90
48860;DHT22;34679;51.436;-2.518;2023-04-24T15:04:16;8.30;99.90
48860;DHT22;34679;51.436;-2.518;2023-04-24T15:06:42;8.30;99.90
48860;DHT22;34679;51.436;-2.518;2023-04-24T15:09:07;8.20;99.90
48860;DHT22;34679;51.436;-2.518;2023-04-24T15:11:33;8.00;99.90
48860;DHT22;34679;51.436;-2.518;2023-04-24T15:13:59;7.90;99.90
48860;DHT22;34679;51.436;-2.518;2023-04-24T15:16:25;7.70;99.90
48860;DHT22;34679;51.436;-2.518;2023-04-24T15:18:51;7.70;99.90
48860;DHT22;34679;51.436;-2.518;2023-04-24T15:21:16;7.70;99.90
48860;DHT22;34679;51.436;-2.518;2023-04-24T15:23:42;7.70;99.90
48860;DHT22;34679;51.436;-2.518;2023-04-24T15:26:08;7.60;99.90
48860;DHT22;34679;51.436;-2.518;2023-04-24T15:28:34;7.60;99.90
48860;DHT22;34679;51.436;-2.518;2023-04-24T15:30:59;7.60;99.90
48860;DHT22;34679;51.436;-2.518;2023-04-24T15:33:25;7.60;99.90
48860;DHT22;34679;51.436;-2.518;2023-04-24T15:35:51;7.50;99.90
48860;DHT22;34679;51.436;-2.518;2023-04-24T15:38:16;7.50;99.90
48860;DHT22;34679;51.436;-2.518;2023-04-24T15:40:42;7.60;99.90
48860;DHT22;34679;51.436;-2.518;2023-04-24T15:43:08;7.60;99.90
48860;DHT22;34679;51.436;-2.518;2023-04-24T15:45:34;7.50;99.90
48860;DHT22;34679;51.436;-2.518;2023-04-24T15:48:00;7.50;99.90